sensor_id;sensor_type;location;lat;lon;timestamp;pressure;altitude;pressure_sealevel;temperature;humidity
68508;BME280;55510;49.560;19.090;2023-02-28T00:00:32;97493.19;;;-2.60;82.84
68508;BME280;55510;49.560;19.090;2023-02-28T00:03:48;97492.06;;;-2.57;82.80
68508;BME280;55510;49.560;19.090;2023-02-28T00:06:49;97494.56;;;-2.56;82.84
68508;BME280;55510;49.560;19.090;2023-02-28T00:09:50;97494.28;;;-2.53;82.56
68508;BME280;55510;49.560;19.090;2023-02-28T00:12:51;97491.00;;;-2.55;82.76
68508;BME280;55510;49.560;19.090;2023-02-28T00:16:03;97496.22;;;-2.55;82.57
68508;BME280;55510;49.560;19.090;2023-02-28T00:19:05;97499.78;;;-2.56;82.36
68508;BME280;55510;49.560;19.090;2023-02-28T00:22:05;97496.47;;;-2.58;82.64
68508;BME280;55510;49.560;19.090;2023-02-28T00:25:07;97501.69;;;-2.58;82.55
68508;BME280;55510;49.560;19.090;2023-02-28T00:28:08;97501.13;;;-2.62;82.14
68508;BME280;55510;49.560;19.090;2023-02-28T00:31:09;97502.91;;;-2.62;81.96
68508;BME280;55510;49.560;19.090;2023-02-28T00:34:09;97491.78;;;-2.64;82.57
68508;BME280;55510;49.560;19.090;2023-02-28T00:37:11;97489.19;;;-2.64;82.12
68508;BME280;55510;49.560;19.090;2023-02-28T00:40:12;97488.47;;;-2.66;81.81
68508;BME280;55510;49.560;19.090;2023-02-28T00:43:13;97488.47;;;-2.66;81.28
68508;BME280;55510;49.560;19.090;2023-02-28T00:46:13;97483.53;;;-2.69;81.33
68508;BME280;55510;49.560;19.090;2023-02-28T00:49:14;97487.94;;;-2.70;81.03
68508;BME280;55510;49.560;19.090;2023-02-28T00:52:15;97488.31;;;-2.74;81.44
68508;BME280;55510;49.560;19.090;2023-02-28T00:55:16;97486.41;;;-2.72;80.93
68508;BME280;55510;49.560;19.090;2023-02-28T00:58:16;97492.72;;;-2.75;81.38
68508;BME280;55510;49.560;19.090;2023-02-28T01:01:17;97493.66;;;-2.76;80.88
68508;BME280;55510;49.560;19.090;2023-02-28T01:04:18;97490.50;;;-2.80;80.97
68508;BME280;55510;49.560;19.090;2023-02-28T01:07:19;97486.94;;;-2.79;80.95
68508;BME280;55510;49.560;19.090;2023-02-28T01:10:19;97489.78;;;-2.82;80.88
68508;BME280;55510;49.560;19.090;2023-02-28T01:13:21;97486.22;;;-2.81;80.64
68508;BME280;55510;49.560;19.090;2023-02-28T01:16:23;97486.38;;;-2.82;80.62
68508;BME280;55510;49.560;19.090;2023-02-28T01:19:24;97484.59;;;-2.82;81.04
68508;BME280;55510;49.560;19.090;2023-02-28T01:22:25;97492.13;;;-2.79;81.13
68508;BME280;55510;49.560;19.090;2023-02-28T01:25:26;97490.22;;;-2.77;81.25
68508;BME280;55510;49.560;19.090;2023-02-28T01:28:26;97485.97;;;-2.78;80.86
68508;BME280;55510;49.560;19.090;2023-02-28T01:31:27;97485.97;;;-2.78;81.42
68508;BME280;55510;49.560;19.090;2023-02-28T01:34:28;97486.94;;;-2.79;80.59
68508;BME280;55510;49.560;19.090;2023-02-28T01:37:28;97480.06;;;-2.80;80.84
68508;BME280;55510;49.560;19.090;2023-02-28T01:40:29;97480.91;;;-2.79;80.65
68508;BME280;55510;49.560;19.090;2023-02-28T01:46:50;97467.88;;;-2.79;81.03
68508;BME280;55510;49.560;19.090;2023-02-28T01:49:51;97475.97;;;-2.82;80.42
68508;BME280;55510;49.560;19.090;2023-02-28T01:52:55;97468.94;;;-2.82;80.84
68508;BME280;55510;49.560;19.090;2023-02-28T01:55:58;97463.75;;;-2.82;80.47
68508;BME280;55510;49.560;19.090;2023-02-28T01:58:58;97461.13;;;-2.82;79.71
68508;BME280;55510;49.560;19.090;2023-02-28T02:02:00;97459.50;;;-2.83;78.58
68508;BME280;55510;49.560;19.090;2023-02-28T02:05:10;97450.88;;;-2.83;78.32
68508;BME280;55510;49.560;19.090;2023-02-28T02:08:19;97446.59;;;-2.84;79.13
68508;BME280;55510;49.560;19.090;2023-02-28T02:11:23;97448.38;;;-2.85;79.01
68508;BME280;55510;49.560;19.090;2023-02-28T02:14:32;97445.78;;;-2.85;78.68
68508;BME280;55510;49.560;19.090;2023-02-28T02:17:39;97445.09;;;-2.87;78.12
68508;BME280;55510;49.560;19.090;2023-02-28T02:35:40;97460.34;;;-3.13;74.88
68508;BME280;55510;49.560;19.090;2023-02-28T02:38:58;97453.75;;;-3.17;75.94
68508;BME280;55510;49.560;19.090;2023-02-28T02:42:11;97455.50;;;-3.18;76.03
68508;BME280;55510;49.560;19.090;2023-02-28T02:45:21;97447.97;;;-3.21;75.93
68508;BME280;55510;49.560;19.090;2023-02-28T02:48:26;97452.63;;;-3.25;76.17
68508;BME280;55510;49.560;19.090;2023-02-28T02:51:30;97455.34;;;-3.26;76.22
68508;BME280;55510;49.560;19.090;2023-02-28T02:54:35;97461.63;;;-3.29;75.89
68508;BME280;55510;49.560;19.090;2023-02-28T02:57:52;97460.81;;;-3.29;75.92
68508;BME280;55510;49.560;19.090;2023-02-28T03:00:58;97466.16;;;-3.31;75.83
68508;BME280;55510;49.560;19.090;2023-02-28T03:04:03;97458.47;;;-3.32;76.10
68508;BME280;55510;49.560;19.090;2023-02-28T03:07:05;97459.41;;;-3.33;76.66
68508;BME280;55510;49.560;19.090;2023-02-28T03:10:36;97476.78;;;-3.34;76.35
68508;BME280;55510;49.560;19.090;2023-02-28T03:20:44;97467.59;;;-3.38;74.79
68508;BME280;55510;49.560;19.090;2023-02-28T03:23:59;97461.84;;;-3.42;75.14
68508;BME280;55510;49.560;19.090;2023-02-28T03:27:09;97467.31;;;-3.45;75.41
68508;BME280;55510;49.560;19.090;2023-02-28T03:33:35;97468.03;;;-3.54;74.56
68508;BME280;55510;49.560;19.090;2023-02-28T03:36:41;97477.19;;;-3.60;74.67
68508;BME280;55510;49.560;19.090;2023-02-28T03:39:47;97475.13;;;-3.66;74.65
68508;BME280;55510;49.560;19.090;2023-02-28T03:42:52;97486.03;;;-3.72;74.76
68508;BME280;55510;49.560;19.090;2023-02-28T03:45:56;97490.91;;;-3.79;74.72
68508;BME280;55510;49.560;19.090;2023-02-28T03:49:07;97495.50;;;-3.83;74.62
68508;BME280;55510;49.560;19.090;2023-02-28T03:52:09;97501.81;;;-3.85;74.92
68508;BME280;55510;49.560;19.090;2023-02-28T03:55:12;97498.75;;;-3.90;74.85
68508;BME280;55510;49.560;19.090;2023-02-28T04:01:39;97505.50;;;-3.99;74.94
68508;BME280;55510;49.560;19.090;2023-02-28T04:04:41;97508.38;;;-4.02;75.19
68508;BME280;55510;49.560;19.090;2023-02-28T04:07:45;97507.06;;;-4.08;74.53
68508;BME280;55510;49.560;19.090;2023-02-28T04:10:50;97505.81;;;-4.14;74.87
68508;BME280;55510;49.560;19.090;2023-02-28T04:13:54;97500.00;;;-4.17;75.24
68508;BME280;55510;49.560;19.090;2023-02-28T04:16:55;97498.47;;;-4.20;75.20
68508;BME280;55510;49.560;19.090;2023-02-28T04:19:56;97496.13;;;-4.23;76.01
68508;BME280;55510;49.560;19.090;2023-02-28T04:22:57;97490.59;;;-4.30;75.28
68508;BME280;55510;49.560;19.090;2023-02-28T04:25:58;97499.13;;;-4.39;75.75
68508;BME280;55510;49.560;19.090;2023-02-28T04:29:02;97497.13;;;-4.47;76.35
68508;BME280;55510;49.560;19.090;2023-02-28T04:32:03;97502.81;;;-4.53;77.08
68508;BME280;55510;49.560;19.090;2023-02-28T04:35:04;97504.13;;;-4.59;77.32
68508;BME280;55510;49.560;19.090;2023-02-28T04:38:05;97508.84;;;-4.64;77.17
68508;BME280;55510;49.560;19.090;2023-02-28T04:41:06;97504.59;;;-4.65;78.13
68508;BME280;55510;49.560;19.090;2023-02-28T04:44:06;97510.38;;;-4.73;78.28
68508;BME280;55510;49.560;19.090;2023-02-28T04:47:07;97504.63;;;-4.76;78.23
68508;BME280;55510;49.560;19.090;2023-02-28T04:50:08;97503.91;;;-4.78;78.38
68508;BME280;55510;49.560;19.090;2023-02-28T04:53:09;97499.19;;;-4.85;78.47
68508;BME280;55510;49.560;19.090;2023-02-28T04:56:12;97506.25;;;-4.87;79.07
68508;BME280;55510;49.560;19.090;2023-02-28T04:59:13;97501.06;;;-4.87;78.59
68508;BME280;55510;49.560;19.090;2023-02-28T05:02:14;97504.84;;;-4.91;79.44
68508;BME280;55510;49.560;19.090;2023-02-28T05:05:15;97499.63;;;-4.91;79.21
68508;BME280;55510;49.560;19.090;2023-02-28T05:08:18;97501.66;;;-4.95;79.61
68508;BME280;55510;49.560;19.090;2023-02-28T05:11:25;97513.22;;;-4.99;79.23
68508;BME280;55510;49.560;19.090;2023-02-28T05:14:26;97512.53;;;-5.01;80.39
68508;BME280;55510;49.560;19.090;2023-02-28T05:17:27;97513.22;;;-4.99;80.21
68508;BME280;55510;49.560;19.090;2023-02-28T05:20:27;97516.53;;;-4.97;80.31
68508;BME280;55510;49.560;19.090;2023-02-28T05:23:28;97513.56;;;-4.92;80.67
68508;BME280;55510;49.560;19.090;2023-02-28T05:26:29;97527.25;;;-4.90;80.97
68508;BME280;55510;49.560;19.090;2023-02-28T05:29:31;97526.81;;;-4.84;80.95
68508;BME280;55510;49.560;19.090;2023-02-28T05:32:31;97528.47;;;-4.83;81.08
68508;BME280;55510;49.560;19.090;2023-02-28T05:35:32;97537.66;;;-4.78;81.50
68508;BME280;55510;49.560;19.090;2023-02-28T05:38:33;97523.38;;;-4.73;82.14
68508;BME280;55510;49.560;19.090;2023-02-28T05:41:34;97531.06;;;-4.71;81.50
68508;BME280;55510;49.560;19.090;2023-02-28T05:44:35;97527.50;;;-4.70;81.00
68508;BME280;55510;49.560;19.090;2023-02-28T05:47:36;97529.97;;;-4.69;80.38
68508;BME280;55510;49.560;19.090;2023-02-28T05:50:37;97540.13;;;-4.66;81.72
68508;BME280;55510;49.560;19.090;2023-02-28T05:53:38;97541.56;;;-4.61;82.50
68508;BME280;55510;49.560;19.090;2023-02-28T05:56:38;97544.63;;;-4.56;82.46
68508;BME280;55510;49.560;19.090;2023-02-28T05:59:40;97547.56;;;-4.49;82.31
68508;BME280;55510;49.560;19.090;2023-02-28T06:02:41;97550.50;;;-4.43;82.09
68508;BME280;55510;49.560;19.090;2023-02-28T06:05:42;97558.28;;;-4.31;82.21
68508;BME280;55510;49.560;19.090;2023-02-28T06:08:42;97558.66;;;-4.25;82.06
68508;BME280;55510;49.560;19.090;2023-02-28T06:11:45;97562.16;;;-4.14;81.69
68508;BME280;55510;49.560;19.090;2023-02-28T06:14:45;97565.69;;;-4.04;81.62
68508;BME280;55510;49.560;19.090;2023-02-28T06:17:46;97567.44;;;-3.93;81.77
68508;BME280;55510;49.560;19.090;2023-02-28T06:20:53;97567.41;;;-3.82;81.21
68508;BME280;55510;49.560;19.090;2023-02-28T06:23:56;97572.44;;;-3.69;80.34
68508;BME280;55510;49.560;19.090;2023-02-28T06:26:57;97570.03;;;-3.60;79.27
68508;BME280;55510;49.560;19.090;2023-02-28T06:29:59;97576.03;;;-3.48;79.33
68508;BME280;55510;49.560;19.090;2023-02-28T06:33:00;97573.88;;;-3.43;77.88
68508;BME280;55510;49.560;19.090;2023-02-28T06:36:00;97571.09;;;-3.30;78.40
68508;BME280;55510;49.560;19.090;2023-02-28T06:39:01;97579.09;;;-3.22;77.89
68508;BME280;55510;49.560;19.090;2023-02-28T06:42:02;97574.31;;;-3.17;77.27
68508;BME280;55510;49.560;19.090;2023-02-28T06:45:03;97576.56;;;-3.12;76.22
68508;BME280;55510;49.560;19.090;2023-02-28T06:48:09;97579.28;;;-3.14;76.30
68508;BME280;55510;49.560;19.090;2023-02-28T06:51:16;97586.72;;;-3.09;76.20
68508;BME280;55510;49.560;19.090;2023-02-28T06:54:18;97585.25;;;-3.02;76.22
68508;BME280;55510;49.560;19.090;2023-02-28T06:57:18;97581.31;;;-2.96;75.24
68508;BME280;55510;49.560;19.090;2023-02-28T07:00:19;97579.97;;;-2.91;75.43
68508;BME280;55510;49.560;19.090;2023-02-28T07:03:20;97584.09;;;-2.88;73.67
68508;BME280;55510;49.560;19.090;2023-02-28T07:06:22;97574.81;;;-2.81;72.98
68508;BME280;55510;49.560;19.090;2023-02-28T07:09:23;97572.66;;;-2.75;72.52
68508;BME280;55510;49.560;19.090;2023-02-28T07:12:24;97572.81;;;-2.67;72.20
68508;BME280;55510;49.560;19.090;2023-02-28T07:15:24;97571.66;;;-2.53;71.38
68508;BME280;55510;49.560;19.090;2023-02-28T07:18:25;97581.59;;;-2.37;70.77
68508;BME280;55510;49.560;19.090;2023-02-28T07:21:26;97579.06;;;-2.17;70.08
68508;BME280;55510;49.560;19.090;2023-02-28T07:24:27;97577.31;;;-1.97;69.53
68508;BME280;55510;49.560;19.090;2023-02-28T07:27:28;97584.22;;;-1.67;69.05
68508;BME280;55510;49.560;19.090;2023-02-28T07:30:29;97584.78;;;-1.43;67.75
68508;BME280;55510;49.560;19.090;2023-02-28T07:33:29;97582.03;;;-1.22;66.47
68508;BME280;55510;49.560;19.090;2023-02-28T07:36:30;97584.47;;;-1.01;65.78
68508;BME280;55510;49.560;19.090;2023-02-28T07:39:31;97597.94;;;-0.86;64.90
68508;BME280;55510;49.560;19.090;2023-02-28T07:42:32;97596.63;;;-0.72;63.18
68508;BME280;55510;49.560;19.090;2023-02-28T07:45:36;97599.63;;;-0.57;63.68
68508;BME280;55510;49.560;19.090;2023-02-28T07:48:37;97600.25;;;-0.35;62.30
68508;BME280;55510;49.560;19.090;2023-02-28T07:51:38;97592.41;;;-0.07;62.09
68508;BME280;55510;49.560;19.090;2023-02-28T07:54:38;97594.88;;;0.22;60.44
68508;BME280;55510;49.560;19.090;2023-02-28T07:57:40;97589.19;;;0.63;59.94
68508;BME280;55510;49.560;19.090;2023-02-28T08:00:41;97597.19;;;3.92;53.07
68508;BME280;55510;49.560;19.090;2023-02-28T08:03:41;97602.22;;;8.18;41.51
68508;BME280;55510;49.560;19.090;2023-02-28T08:06:42;97588.28;;;11.09;34.90
68508;BME280;55510;49.560;19.090;2023-02-28T08:09:44;97592.34;;;13.22;29.85
68508;BME280;55510;49.560;19.090;2023-02-28T08:12:44;97591.59;;;15.09;26.93
68508;BME280;55510;49.560;19.090;2023-02-28T08:15:45;97595.84;;;16.67;24.71
68508;BME280;55510;49.560;19.090;2023-02-28T08:18:49;97596.31;;;18.64;22.92
68508;BME280;55510;49.560;19.090;2023-02-28T08:21:50;97600.94;;;19.82;20.76
68508;BME280;55510;49.560;19.090;2023-02-28T08:24:51;97603.78;;;20.88;19.87
68508;BME280;55510;49.560;19.090;2023-02-28T08:27:52;97603.38;;;21.40;19.00
68508;BME280;55510;49.560;19.090;2023-02-28T08:30:53;97610.69;;;22.23;17.78
68508;BME280;55510;49.560;19.090;2023-02-28T08:33:54;97607.59;;;22.10;16.23
68508;BME280;55510;49.560;19.090;2023-02-28T08:36:59;97608.00;;;23.05;16.94
68508;BME280;55510;49.560;19.090;2023-02-28T08:39:59;97613.41;;;23.05;15.77
68508;BME280;55510;49.560;19.090;2023-02-28T08:43:00;97617.28;;;23.84;16.24
68508;BME280;55510;49.560;19.090;2023-02-28T08:46:01;97614.91;;;24.10;15.50
68508;BME280;55510;49.560;19.090;2023-02-28T08:49:02;97605.03;;;24.42;14.61
68508;BME280;55510;49.560;19.090;2023-02-28T08:52:03;97609.97;;;24.91;14.58
68508;BME280;55510;49.560;19.090;2023-02-28T08:55:04;97608.75;;;25.20;14.74
68508;BME280;55510;49.560;19.090;2023-02-28T08:58:05;97611.72;;;25.32;13.99
68508;BME280;55510;49.560;19.090;2023-02-28T09:01:15;97616.50;;;25.50;14.14
68508;BME280;55510;49.560;19.090;2023-02-28T09:04:16;97611.91;;;25.90;13.89
68508;BME280;55510;49.560;19.090;2023-02-28T09:07:16;97610.78;;;26.32;13.77
68508;BME280;55510;49.560;19.090;2023-02-28T09:10:17;97608.38;;;26.39;13.52
68508;BME280;55510;49.560;19.090;2023-02-28T09:13:18;97611.94;;;25.99;13.21
68508;BME280;55510;49.560;19.090;2023-02-28T09:16:19;97604.25;;;26.42;13.22
68508;BME280;55510;49.560;19.090;2023-02-28T09:19:20;97603.38;;;26.24;12.78
68508;BME280;55510;49.560;19.090;2023-02-28T09:22:20;97600.69;;;26.32;13.48
68508;BME280;55510;49.560;19.090;2023-02-28T09:25:22;97594.50;;;25.69;12.66
68508;BME280;55510;49.560;19.090;2023-02-28T09:28:23;97597.84;;;26.06;13.25
68508;BME280;55510;49.560;19.090;2023-02-28T09:31:26;97597.81;;;26.38;13.03
68508;BME280;55510;49.560;19.090;2023-02-28T09:34:27;97599.03;;;25.05;13.40
68508;BME280;55510;49.560;19.090;2023-02-28T09:37:31;97591.91;;;23.74;14.19
68508;BME280;55510;49.560;19.090;2023-02-28T09:40:36;97597.03;;;21.84;15.55
68508;BME280;55510;49.560;19.090;2023-02-28T09:43:41;97596.63;;;21.72;14.63
68508;BME280;55510;49.560;19.090;2023-02-28T09:46:47;97609.41;;;21.32;16.11
68508;BME280;55510;49.560;19.090;2023-02-28T09:49:49;97593.69;;;22.36;15.70
68508;BME280;55510;49.560;19.090;2023-02-28T09:52:50;97595.53;;;23.84;14.74
68508;BME280;55510;49.560;19.090;2023-02-28T09:55:55;97605.03;;;24.93;14.60
68508;BME280;55510;49.560;19.090;2023-02-28T09:59:17;97610.31;;;25.12;13.79
68508;BME280;55510;49.560;19.090;2023-02-28T10:05:59;97593.44;;;24.23;13.63
68508;BME280;55510;49.560;19.090;2023-02-28T10:09:10;97587.31;;;24.31;14.40
68508;BME280;55510;49.560;19.090;2023-02-28T10:12:15;97597.72;;;24.80;14.54
68508;BME280;55510;49.560;19.090;2023-02-28T10:15:17;97600.94;;;24.82;14.14
68508;BME280;55510;49.560;19.090;2023-02-28T10:18:23;97587.06;;;23.99;14.15
68508;BME280;55510;49.560;19.090;2023-02-28T10:21:31;97593.75;;;24.07;14.00
68508;BME280;55510;49.560;19.090;2023-02-28T10:24:51;97586.84;;;24.66;14.11
68508;BME280;55510;49.560;19.090;2023-02-28T10:31:18;97573.34;;;23.49;14.85
68508;BME280;55510;49.560;19.090;2023-02-28T10:34:19;97572.28;;;22.78;15.49
68508;BME280;55510;49.560;19.090;2023-02-28T10:37:20;97569.44;;;20.83;16.72
68508;BME280;55510;49.560;19.090;2023-02-28T10:43:23;97564.31;;;20.82;17.14
68508;BME280;55510;49.560;19.090;2023-02-28T10:46:33;97556.88;;;21.33;16.08
68508;BME280;55510;49.560;19.090;2023-02-28T10:49:34;97566.81;;;21.08;17.18
68508;BME280;55510;49.560;19.090;2023-02-28T10:52:39;97552.25;;;21.68;16.58
68508;BME280;55510;49.560;19.090;2023-02-28T10:55:40;97544.19;;;21.28;16.50
68508;BME280;55510;49.560;19.090;2023-02-28T11:01:56;97545.16;;;22.78;16.37
68508;BME280;55510;49.560;19.090;2023-02-28T11:04:58;97545.53;;;23.38;15.59
68508;BME280;55510;49.560;19.090;2023-02-28T11:08:17;97544.38;;;24.28;15.70
68508;BME280;55510;49.560;19.090;2023-02-28T11:11:20;97546.13;;;24.97;14.65
68508;BME280;55510;49.560;19.090;2023-02-28T11:14:25;97535.75;;;25.31;14.11
68508;BME280;55510;49.560;19.090;2023-02-28T11:17:30;97538.38;;;25.45;14.15
68508;BME280;55510;49.560;19.090;2023-02-28T11:20:33;97539.66;;;25.16;14.36
68508;BME280;55510;49.560;19.090;2023-02-28T11:23:36;97528.06;;;24.28;14.64
68508;BME280;55510;49.560;19.090;2023-02-28T11:26:42;97529.22;;;24.50;14.96
68508;BME280;55510;49.560;19.090;2023-02-28T11:29:47;97527.44;;;25.36;14.55
68508;BME280;55510;49.560;19.090;2023-02-28T11:32:49;97522.84;;;24.17;14.64
68508;BME280;55510;49.560;19.090;2023-02-28T11:35:55;97516.19;;;23.26;15.28
68508;BME280;55510;49.560;19.090;2023-02-28T11:39:00;97519.72;;;21.92;16.39
68508;BME280;55510;49.560;19.090;2023-02-28T11:55:42;97519.38;;;24.40;15.19
68508;BME280;55510;49.560;19.090;2023-02-28T11:59:00;97519.91;;;24.79;14.72
68508;BME280;55510;49.560;19.090;2023-02-28T12:05:23;97514.13;;;25.03;14.82
68508;BME280;55510;49.560;19.090;2023-02-28T12:08:36;97515.50;;;25.46;14.08
68508;BME280;55510;49.560;19.090;2023-02-28T12:15:24;97507.03;;;24.19;14.71
68508;BME280;55510;49.560;19.090;2023-02-28T12:25:15;97508.16;;;23.90;14.26
68508;BME280;55510;49.560;19.090;2023-02-28T12:28:25;97508.34;;;24.22;15.10
68508;BME280;55510;49.560;19.090;2023-02-28T12:31:29;97502.38;;;24.34;15.42
68508;BME280;55510;49.560;19.090;2023-02-28T12:34:35;97502.41;;;24.57;15.09
68508;BME280;55510;49.560;19.090;2023-02-28T12:37:41;97501.47;;;24.75;14.92
68508;BME280;55510;49.560;19.090;2023-02-28T12:40:55;97492.50;;;24.38;14.06
68508;BME280;55510;49.560;19.090;2023-02-28T12:47:29;97481.59;;;23.59;15.66
68508;BME280;55510;49.560;19.090;2023-02-28T12:50:30;97482.81;;;23.53;15.47
68508;BME280;55510;49.560;19.090;2023-02-28T13:00:00;97474.72;;;21.72;17.46
68508;BME280;55510;49.560;19.090;2023-02-28T13:09:57;97473.66;;;18.66;20.79
68508;BME280;55510;49.560;19.090;2023-02-28T13:13:02;97460.22;;;17.18;21.04
68508;BME280;55510;49.560;19.090;2023-02-28T13:16:10;97460.09;;;16.05;22.57
68508;BME280;55510;49.560;19.090;2023-02-28T13:19:11;97465.19;;;14.83;23.89
68508;BME280;55510;49.560;19.090;2023-02-28T13:22:41;97454.72;;;13.60;25.58
68508;BME280;55510;49.560;19.090;2023-02-28T13:38:17;97449.47;;;11.17;30.34
68508;BME280;55510;49.560;19.090;2023-02-28T13:48:18;97438.97;;;9.89;31.57
68508;BME280;55510;49.560;19.090;2023-02-28T13:51:44;97441.75;;;10.01;32.29
68508;BME280;55510;49.560;19.090;2023-02-28T14:04:43;97427.44;;;10.02;32.63
68508;BME280;55510;49.560;19.090;2023-02-28T14:07:51;97419.88;;;9.60;32.66
68508;BME280;55510;49.560;19.090;2023-02-28T14:11:06;97422.25;;;9.29;33.76
68508;BME280;55510;49.560;19.090;2023-02-28T14:14:09;97417.53;;;9.25;34.25
68508;BME280;55510;49.560;19.090;2023-02-28T14:17:15;97418.66;;;8.90;34.36
68508;BME280;55510;49.560;19.090;2023-02-28T14:20:26;97420.09;;;8.86;34.99
68508;BME280;55510;49.560;19.090;2023-02-28T14:36:36;97424.75;;;8.03;36.42
68508;BME280;55510;49.560;19.090;2023-02-28T14:39:41;97421.88;;;7.91;36.68
68508;BME280;55510;49.560;19.090;2023-02-28T14:42:47;97421.03;;;7.77;36.52
68508;BME280;55510;49.560;19.090;2023-02-28T14:45:51;97418.75;;;7.67;36.90
68508;BME280;55510;49.560;19.090;2023-02-28T14:48:54;97424.03;;;7.54;37.15
68508;BME280;55510;49.560;19.090;2023-02-28T14:52:06;97413.97;;;7.36;37.82
68508;BME280;55510;49.560;19.090;2023-02-28T14:55:15;97416.69;;;7.14;37.92
68508;BME280;55510;49.560;19.090;2023-02-28T14:58:29;97410.56;;;7.07;38.34
68508;BME280;55510;49.560;19.090;2023-02-28T15:01:30;97411.91;;;6.96;38.94
68508;BME280;55510;49.560;19.090;2023-02-28T15:04:34;97415.72;;;6.87;39.30
68508;BME280;55510;49.560;19.090;2023-02-28T15:07:35;97408.97;;;6.77;39.75
68508;BME280;55510;49.560;19.090;2023-02-28T15:10:37;97414.03;;;6.72;39.73
68508;BME280;55510;49.560;19.090;2023-02-28T15:13:54;97418.34;;;6.51;40.21
68508;BME280;55510;49.560;19.090;2023-02-28T15:17:01;97422.59;;;6.46;40.23
68508;BME280;55510;49.560;19.090;2023-02-28T15:20:02;97421.06;;;6.36;40.43
68508;BME280;55510;49.560;19.090;2023-02-28T15:23:03;97420.41;;;6.28;40.75
68508;BME280;55510;49.560;19.090;2023-02-28T15:26:05;97420.59;;;6.04;41.04
68508;BME280;55510;49.560;19.090;2023-02-28T15:29:19;97428.84;;;5.79;41.61
68508;BME280;55510;49.560;19.090;2023-02-28T15:32:33;97416.47;;;5.28;41.88
68508;BME280;55510;49.560;19.090;2023-02-28T15:35:34;97418.03;;;4.77;43.60
68508;BME280;55510;49.560;19.090;2023-02-28T15:38:36;97425.41;;;4.29;44.72
68508;BME280;55510;49.560;19.090;2023-02-28T15:41:38;97423.72;;;3.89;45.54
68508;BME280;55510;49.560;19.090;2023-02-28T15:44:38;97425.44;;;3.51;47.26
68508;BME280;55510;49.560;19.090;2023-02-28T15:47:45;97425.75;;;3.16;47.97
68508;BME280;55510;49.560;19.090;2023-02-28T15:50:54;97426.16;;;2.88;49.60
68508;BME280;55510;49.560;19.090;2023-02-28T15:54:02;97426.06;;;2.56;50.29
68508;BME280;55510;49.560;19.090;2023-02-28T15:57:06;97421.81;;;2.30;51.02
68508;BME280;55510;49.560;19.090;2023-02-28T16:00:13;97423.63;;;2.05;51.65
68508;BME280;55510;49.560;19.090;2023-02-28T16:03:37;97414.56;;;1.74;52.93
68508;BME280;55510;49.560;19.090;2023-02-28T16:06:43;97431.75;;;1.52;54.39
68508;BME280;55510;49.560;19.090;2023-02-28T16:09:44;97426.44;;;1.36;55.04
68508;BME280;55510;49.560;19.090;2023-02-28T16:12:45;97430.94;;;1.17;55.74
68508;BME280;55510;49.560;19.090;2023-02-28T16:15:46;97427.59;;;0.98;56.40
68508;BME280;55510;49.560;19.090;2023-02-28T16:18:47;97432.09;;;0.80;57.26
68508;BME280;55510;49.560;19.090;2023-02-28T16:21:48;97440.16;;;0.60;58.04
68508;BME280;55510;49.560;19.090;2023-02-28T16:24:49;97437.59;;;0.42;58.56
68508;BME280;55510;49.560;19.090;2023-02-28T16:27:52;97444.19;;;0.28;59.03
68508;BME280;55510;49.560;19.090;2023-02-28T16:30:54;97446.38;;;0.14;59.74
68508;BME280;55510;49.560;19.090;2023-02-28T16:33:55;97455.28;;;0.04;60.20
68508;BME280;55510;49.560;19.090;2023-02-28T16:36:56;97457.75;;;-0.13;60.92
68508;BME280;55510;49.560;19.090;2023-02-28T16:39:57;97457.94;;;-0.24;61.92
68508;BME280;55510;49.560;19.090;2023-02-28T16:42:59;97461.63;;;-0.35;62.39
68508;BME280;55510;49.560;19.090;2023-02-28T16:46:00;97466.06;;;-0.46;62.90
68508;BME280;55510;49.560;19.090;2023-02-28T16:49:03;97462.00;;;-0.58;63.21
68508;BME280;55510;49.560;19.090;2023-02-28T16:52:04;97471.53;;;-0.67;64.01
68508;BME280;55510;49.560;19.090;2023-02-28T16:55:06;97470.63;;;-0.76;64.33
68508;BME280;55510;49.560;19.090;2023-02-28T16:58:14;97471.50;;;-0.85;64.91
68508;BME280;55510;49.560;19.090;2023-02-28T17:01:16;97478.53;;;-0.95;65.05
68508;BME280;55510;49.560;19.090;2023-02-28T17:04:17;97475.53;;;-1.00;65.85
68508;BME280;55510;49.560;19.090;2023-02-28T17:07:18;97481.34;;;-1.07;66.44
68508;BME280;55510;49.560;19.090;2023-02-28T17:10:21;97483.56;;;-1.12;66.39
68508;BME280;55510;49.560;19.090;2023-02-28T17:13:23;97491.13;;;-1.19;66.51
68508;BME280;55510;49.560;19.090;2023-02-28T17:16:32;97491.03;;;-1.27;66.91
68508;BME280;55510;49.560;19.090;2023-02-28T17:19:34;97493.22;;;-1.32;67.51
68508;BME280;55510;49.560;19.090;2023-02-28T17:22:36;97492.97;;;-1.39;68.31
68508;BME280;55510;49.560;19.090;2023-02-28T17:25:37;97490.91;;;-1.45;67.85
68508;BME280;55510;49.560;19.090;2023-02-28T17:28:38;97500.94;;;-1.50;68.78
68508;BME280;55510;49.560;19.090;2023-02-28T17:31:39;97503.16;;;-1.55;68.77
68508;BME280;55510;49.560;19.090;2023-02-28T17:34:39;97505.38;;;-1.61;68.94
68508;BME280;55510;49.560;19.090;2023-02-28T17:37:41;97504.00;;;-1.65;68.73
68508;BME280;55510;49.560;19.090;2023-02-28T17:40:41;97511.41;;;-1.70;69.31
68508;BME280;55510;49.560;19.090;2023-02-28T17:43:42;97503.19;;;-1.75;69.49
68508;BME280;55510;49.560;19.090;2023-02-28T17:46:43;97505.34;;;-1.80;69.68
68508;BME280;55510;49.560;19.090;2023-02-28T17:49:45;97503.97;;;-1.84;70.06
68508;BME280;55510;49.560;19.090;2023-02-28T17:52:45;97500.16;;;-1.90;70.11
68508;BME280;55510;49.560;19.090;2023-02-28T17:55:46;97498.09;;;-1.96;70.70
68508;BME280;55510;49.560;19.090;2023-02-28T17:58:47;97494.94;;;-2.00;70.63
68508;BME280;55510;49.560;19.090;2023-02-28T18:01:48;97493.56;;;-2.04;70.56
68508;BME280;55510;49.560;19.090;2023-02-28T18:04:49;97502.88;;;-2.11;70.49
68508;BME280;55510;49.560;19.090;2023-02-28T18:07:50;97498.22;;;-2.17;71.51
68508;BME280;55510;49.560;19.090;2023-02-28T18:10:52;97497.75;;;-2.23;71.65
68508;BME280;55510;49.560;19.090;2023-02-28T18:13:55;97490.38;;;-2.27;71.84